sensor_id;sensor_type;location;lat;lon;timestamp;P1;durP1;ratioP1;P2;durP2;ratioP2
71503;SDS011;59323;50.874;7.028;2022-07-29T00:02:06;4.93;;;1.70;;
71503;SDS011;59323;50.874;7.028;2022-07-29T00:04:33;8.15;;;2.00;;
71503;SDS011;59323;50.874;7.028;2022-07-29T00:06:59;3.43;;;1.43;;
71503;SDS011;59323;50.874;7.028;2022-07-29T00:09:24;5.43;;;1.30;;
71503;SDS011;59323;50.874;7.028;2022-07-29T00:11:50;3.90;;;1.60;;
71503;SDS011;59323;50.874;7.028;2022-07-29T00:14:15;5.80;;;1.93;;
71503;SDS011;59323;50.874;7.028;2022-07-29T00:16:41;5.53;;;1.93;;
71503;SDS011;59323;50.874;7.028;2022-07-29T00:19:06;5.63;;;1.47;;
71503;SDS011;59323;50.874;7.028;2022-07-29T00:21:31;3.75;;;1.35;;
71503;SDS011;59323;50.874;7.028;2022-07-29T00:23:57;3.47;;;1.27;;
71503;SDS011;59323;50.874;7.028;2022-07-29T00:26:22;7.17;;;1.60;;
71503;SDS011;59323;50.874;7.028;2022-07-29T00:28:48;5.40;;;1.40;;
71503;SDS011;59323;50.874;7.028;2022-07-29T00:31:13;4.73;;;1.40;;
71503;SDS011;59323;50.874;7.028;2022-07-29T00:33:39;3.47;;;1.43;;
71503;SDS011;59323;50.874;7.028;2022-07-29T00:36:04;7.60;;;1.87;;
71503;SDS011;59323;50.874;7.028;2022-07-29T00:38:30;3.58;;;1.45;;
71503;SDS011;59323;50.874;7.028;2022-07-29T00:40:55;3.97;;;1.17;;
71503;SDS011;59323;50.874;7.028;2022-07-29T00:43:21;5.07;;;1.13;;
71503;SDS011;59323;50.874;7.028;2022-07-29T00:45:46;4.00;;;1.48;;
71503;SDS011;59323;50.874;7.028;2022-07-29T00:48:12;4.30;;;1.23;;
71503;SDS011;59323;50.874;7.028;2022-07-29T00:50:37;3.67;;;1.43;;
71503;SDS011;59323;50.874;7.028;2022-07-29T00:53:03;3.57;;;1.50;;
71503;SDS011;59323;50.874;7.028;2022-07-29T00:55:31;4.13;;;1.30;;
71503;SDS011;59323;50.874;7.028;2022-07-29T00:57:56;4.43;;;1.63;;
71503;SDS011;59323;50.874;7.028;2022-07-29T01:00:25;3.58;;;1.80;;
71503;SDS011;59323;50.874;7.028;2022-07-29T01:02:52;2.85;;;1.35;;
71503;SDS011;59323;50.874;7.028;2022-07-29T01:05:18;3.23;;;1.47;;
71503;SDS011;59323;50.874;7.028;2022-07-29T01:07:48;8.68;;;1.30;;
71503;SDS011;59323;50.874;7.028;2022-07-29T01:10:16;5.20;;;1.77;;
71503;SDS011;59323;50.874;7.028;2022-07-29T01:12:44;3.80;;;1.40;;
71503;SDS011;59323;50.874;7.028;2022-07-29T01:15:12;4.72;;;1.15;;
71503;SDS011;59323;50.874;7.028;2022-07-29T01:20:35;5.82;;;1.52;;
71503;SDS011;59323;50.874;7.028;2022-07-29T01:26:06;4.88;;;1.45;;
71503;SDS011;59323;50.874;7.028;2022-07-29T01:31:31;3.83;;;1.30;;
71503;SDS011;59323;50.874;7.028;2022-07-29T01:34:03;3.10;;;1.27;;
71503;SDS011;59323;50.874;7.028;2022-07-29T01:36:33;5.82;;;2.08;;
71503;SDS011;59323;50.874;7.028;2022-07-29T01:39:06;3.80;;;1.10;;
71503;SDS011;59323;50.874;7.028;2022-07-29T01:41:32;8.02;;;1.58;;
71503;SDS011;59323;50.874;7.028;2022-07-29T01:44:02;4.00;;;1.57;;
71503;SDS011;59323;50.874;7.028;2022-07-29T01:46:35;4.88;;;1.50;;
71503;SDS011;59323;50.874;7.028;2022-07-29T01:49:16;4.55;;;1.67;;
71503;SDS011;59323;50.874;7.028;2022-07-29T01:51:46;5.25;;;1.52;;
71503;SDS011;59323;50.874;7.028;2022-07-29T01:56:59;4.03;;;1.40;;
71503;SDS011;59323;50.874;7.028;2022-07-29T01:59:26;4.45;;;1.23;;
71503;SDS011;59323;50.874;7.028;2022-07-29T02:01:54;3.83;;;1.45;;
71503;SDS011;59323;50.874;7.028;2022-07-29T02:04:22;6.57;;;1.40;;
71503;SDS011;59323;50.874;7.028;2022-07-29T02:06:49;4.10;;;1.52;;
71503;SDS011;59323;50.874;7.028;2022-07-29T02:09:17;5.43;;;1.53;;
71503;SDS011;59323;50.874;7.028;2022-07-29T02:11:47;6.75;;;1.00;;
71503;SDS011;59323;50.874;7.028;2022-07-29T02:14:15;4.45;;;1.58;;
71503;SDS011;59323;50.874;7.028;2022-07-29T02:16:43;4.78;;;1.67;;
71503;SDS011;59323;50.874;7.028;2022-07-29T02:19:12;5.30;;;1.90;;
71503;SDS011;59323;50.874;7.028;2022-07-29T02:21:43;3.77;;;1.53;;
71503;SDS011;59323;50.874;7.028;2022-07-29T02:24:09;7.22;;;1.50;;
71503;SDS011;59323;50.874;7.028;2022-07-29T02:26:36;5.50;;;1.48;;
71503;SDS011;59323;50.874;7.028;2022-07-29T02:29:04;3.10;;;1.30;;
71503;SDS011;59323;50.874;7.028;2022-07-29T02:31:32;4.82;;;1.77;;
71503;SDS011;59323;50.874;7.028;2022-07-29T02:33:59;3.67;;;1.50;;
71503;SDS011;59323;50.874;7.028;2022-07-29T02:36:27;3.55;;;1.52;;
71503;SDS011;59323;50.874;7.028;2022-07-29T02:38:55;5.07;;;1.40;;
71503;SDS011;59323;50.874;7.028;2022-07-29T02:41:30;4.45;;;2.10;;
71503;SDS011;59323;50.874;7.028;2022-07-29T02:44:06;4.85;;;1.85;;
71503;SDS011;59323;50.874;7.028;2022-07-29T02:46:36;3.07;;;1.37;;
71503;SDS011;59323;50.874;7.028;2022-07-29T02:49:10;5.72;;;1.50;;
71503;SDS011;59323;50.874;7.028;2022-07-29T02:51:44;4.78;;;1.90;;
71503;SDS011;59323;50.874;7.028;2022-07-29T02:54:17;4.50;;;1.75;;
71503;SDS011;59323;50.874;7.028;2022-07-29T02:56:48;4.22;;;1.50;;
71503;SDS011;59323;50.874;7.028;2022-07-29T02:59:19;4.60;;;1.60;;
71503;SDS011;59323;50.874;7.028;2022-07-29T03:01:48;3.50;;;1.77;;
71503;SDS011;59323;50.874;7.028;2022-07-29T03:04:15;4.82;;;1.90;;
71503;SDS011;59323;50.874;7.028;2022-07-29T03:06:43;4.03;;;1.30;;
71503;SDS011;59323;50.874;7.028;2022-07-29T03:09:10;3.72;;;1.75;;
71503;SDS011;59323;50.874;7.028;2022-07-29T03:11:37;4.93;;;1.63;;
71503;SDS011;59323;50.874;7.028;2022-07-29T03:14:04;4.90;;;1.63;;
71503;SDS011;59323;50.874;7.028;2022-07-29T03:16:30;5.28;;;1.50;;
71503;SDS011;59323;50.874;7.028;2022-07-29T03:18:56;5.07;;;1.77;;
71503;SDS011;59323;50.874;7.028;2022-07-29T03:21:22;4.70;;;1.80;;
71503;SDS011;59323;50.874;7.028;2022-07-29T03:23:48;5.13;;;1.60;;
71503;SDS011;59323;50.874;7.028;2022-07-29T03:26:13;5.33;;;1.60;;
71503;SDS011;59323;50.874;7.028;2022-07-29T03:28:39;3.90;;;1.60;;
71503;SDS011;59323;50.874;7.028;2022-07-29T03:31:04;6.72;;;2.00;;
71503;SDS011;59323;50.874;7.028;2022-07-29T03:33:29;4.17;;;1.73;;
71503;SDS011;59323;50.874;7.028;2022-07-29T03:35:55;5.07;;;1.57;;
71503;SDS011;59323;50.874;7.028;2022-07-29T03:38:21;4.97;;;1.80;;
71503;SDS011;59323;50.874;7.028;2022-07-29T03:40:51;4.82;;;1.85;;
71503;SDS011;59323;50.874;7.028;2022-07-29T03:43:21;4.50;;;1.30;;
71503;SDS011;59323;50.874;7.028;2022-07-29T03:45:49;5.55;;;1.70;;
71503;SDS011;59323;50.874;7.028;2022-07-29T03:48:18;4.28;;;1.80;;
71503;SDS011;59323;50.874;7.028;2022-07-29T03:50:46;4.45;;;2.25;;
71503;SDS011;59323;50.874;7.028;2022-07-29T03:53:13;5.00;;;2.33;;
71503;SDS011;59323;50.874;7.028;2022-07-29T03:55:45;7.77;;;2.33;;
71503;SDS011;59323;50.874;7.028;2022-07-29T03:58:14;3.67;;;1.63;;
71503;SDS011;59323;50.874;7.028;2022-07-29T04:00:40;5.70;;;2.13;;
71503;SDS011;59323;50.874;7.028;2022-07-29T04:03:08;5.00;;;1.88;;
71503;SDS011;59323;50.874;7.028;2022-07-29T04:05:34;6.00;;;2.20;;
71503;SDS011;59323;50.874;7.028;2022-07-29T04:07:59;6.93;;;1.67;;
71503;SDS011;59323;50.874;7.028;2022-07-29T04:10:25;5.73;;;1.90;;
71503;SDS011;59323;50.874;7.028;2022-07-29T04:12:50;6.30;;;1.93;;
71503;SDS011;59323;50.874;7.028;2022-07-29T04:15:16;5.45;;;1.88;;
71503;SDS011;59323;50.874;7.028;2022-07-29T04:17:41;7.07;;;2.13;;
71503;SDS011;59323;50.874;7.028;2022-07-29T04:20:07;9.73;;;2.20;;
71503;SDS011;59323;50.874;7.028;2022-07-29T04:22:33;5.22;;;1.70;;
71503;SDS011;59323;50.874;7.028;2022-07-29T04:24:59;7.85;;;2.30;;
71503;SDS011;59323;50.874;7.028;2022-07-29T04:27:24;8.47;;;2.10;;
71503;SDS011;59323;50.874;7.028;2022-07-29T04:29:50;7.07;;;1.60;;
71503;SDS011;59323;50.874;7.028;2022-07-29T04:32:15;7.47;;;1.98;;
71503;SDS011;59323;50.874;7.028;2022-07-29T04:34:40;5.60;;;1.60;;
71503;SDS011;59323;50.874;7.028;2022-07-29T04:37:06;4.87;;;1.90;;
71503;SDS011;59323;50.874;7.028;2022-07-29T04:39:31;8.57;;;2.43;;
71503;SDS011;59323;50.874;7.028;2022-07-29T04:41:56;5.93;;;1.80;;
71503;SDS011;59323;50.874;7.028;2022-07-29T04:44:22;10.18;;;1.90;;
71503;SDS011;59323;50.874;7.028;2022-07-29T04:46:47;6.03;;;1.53;;
71503;SDS011;59323;50.874;7.028;2022-07-29T04:49:12;12.30;;;3.03;;
71503;SDS011;59323;50.874;7.028;2022-07-29T04:51:38;6.93;;;1.43;;
71503;SDS011;59323;50.874;7.028;2022-07-29T04:54:04;8.18;;;2.60;;
71503;SDS011;59323;50.874;7.028;2022-07-29T04:56:29;8.33;;;1.80;;
71503;SDS011;59323;50.874;7.028;2022-07-29T04:58:54;6.20;;;2.20;;
71503;SDS011;59323;50.874;7.028;2022-07-29T05:01:20;8.60;;;1.73;;
71503;SDS011;59323;50.874;7.028;2022-07-29T05:03:45;8.87;;;1.93;;
71503;SDS011;59323;50.874;7.028;2022-07-29T05:06:11;6.17;;;2.10;;
71503;SDS011;59323;50.874;7.028;2022-07-29T05:08:36;6.13;;;1.83;;
71503;SDS011;59323;50.874;7.028;2022-07-29T05:11:02;5.75;;;1.88;;
71503;SDS011;59323;50.874;7.028;2022-07-29T05:13:28;4.35;;;1.70;;
71503;SDS011;59323;50.874;7.028;2022-07-29T05:15:53;8.23;;;2.00;;
71503;SDS011;59323;50.874;7.028;2022-07-29T05:18:19;8.17;;;1.57;;
71503;SDS011;59323;50.874;7.028;2022-07-29T05:20:44;5.33;;;1.77;;
71503;SDS011;59323;50.874;7.028;2022-07-29T05:23:10;6.25;;;2.00;;
71503;SDS011;59323;50.874;7.028;2022-07-29T05:25:37;6.07;;;1.90;;
71503;SDS011;59323;50.874;7.028;2022-07-29T05:28:03;7.90;;;1.80;;
71503;SDS011;59323;50.874;7.028;2022-07-29T05:30:28;5.87;;;1.47;;
71503;SDS011;59323;50.874;7.028;2022-07-29T05:32:54;7.55;;;1.63;;
71503;SDS011;59323;50.874;7.028;2022-07-29T05:35:19;4.53;;;1.40;;
71503;SDS011;59323;50.874;7.028;2022-07-29T05:37:45;8.00;;;1.73;;
71503;SDS011;59323;50.874;7.028;2022-07-29T05:40:10;6.73;;;1.60;;
71503;SDS011;59323;50.874;7.028;2022-07-29T05:42:35;11.15;;;1.80;;
71503;SDS011;59323;50.874;7.028;2022-07-29T05:45:01;7.90;;;2.00;;
71503;SDS011;59323;50.874;7.028;2022-07-29T05:47:28;4.97;;;2.20;;
71503;SDS011;59323;50.874;7.028;2022-07-29T05:49:56;8.23;;;1.40;;
71503;SDS011;59323;50.874;7.028;2022-07-29T05:52:22;7.57;;;1.85;;
71503;SDS011;59323;50.874;7.028;2022-07-29T05:54:47;7.27;;;1.63;;
71503;SDS011;59323;50.874;7.028;2022-07-29T05:57:19;8.27;;;2.00;;
71503;SDS011;59323;50.874;7.028;2022-07-29T05:59:46;9.13;;;1.70;;
71503;SDS011;59323;50.874;7.028;2022-07-29T06:02:12;5.65;;;2.13;;
71503;SDS011;59323;50.874;7.028;2022-07-29T06:04:37;5.90;;;1.63;;
71503;SDS011;59323;50.874;7.028;2022-07-29T06:07:02;11.23;;;2.00;;
71503;SDS011;59323;50.874;7.028;2022-07-29T06:09:28;8.60;;;2.10;;
71503;SDS011;59323;50.874;7.028;2022-07-29T06:11:54;6.13;;;2.00;;
71503;SDS011;59323;50.874;7.028;2022-07-29T06:14:19;9.77;;;2.00;;
71503;SDS011;59323;50.874;7.028;2022-07-29T06:16:45;7.60;;;1.67;;
71503;SDS011;59323;50.874;7.028;2022-07-29T06:19:10;5.77;;;1.73;;
71503;SDS011;59323;50.874;7.028;2022-07-29T06:21:36;4.72;;;1.50;;
71503;SDS011;59323;50.874;7.028;2022-07-29T06:24:01;6.83;;;1.57;;
71503;SDS011;59323;50.874;7.028;2022-07-29T06:26:27;12.13;;;2.40;;
71503;SDS011;59323;50.874;7.028;2022-07-29T06:28:53;9.02;;;1.70;;
71503;SDS011;59323;50.874;7.028;2022-07-29T06:31:22;7.00;;;1.70;;
71503;SDS011;59323;50.874;7.028;2022-07-29T06:33:47;5.97;;;1.70;;
71503;SDS011;59323;50.874;7.028;2022-07-29T06:36:12;7.07;;;2.00;;
71503;SDS011;59323;50.874;7.028;2022-07-29T06:38:38;9.20;;;1.93;;
71503;SDS011;59323;50.874;7.028;2022-07-29T06:41:03;8.80;;;1.80;;
71503;SDS011;59323;50.874;7.028;2022-07-29T06:43:34;6.03;;;2.00;;
71503;SDS011;59323;50.874;7.028;2022-07-29T06:46:07;6.35;;;2.17;;
71503;SDS011;59323;50.874;7.028;2022-07-29T06:48:34;6.60;;;1.97;;
71503;SDS011;59323;50.874;7.028;2022-07-29T06:51:01;6.03;;;2.47;;
71503;SDS011;59323;50.874;7.028;2022-07-29T06:53:27;6.47;;;1.60;;
71503;SDS011;59323;50.874;7.028;2022-07-29T06:55:53;7.20;;;1.50;;
71503;SDS011;59323;50.874;7.028;2022-07-29T06:58:18;10.70;;;2.10;;
71503;SDS011;59323;50.874;7.028;2022-07-29T07:00:45;7.72;;;1.90;;
71503;SDS011;59323;50.874;7.028;2022-07-29T07:03:12;6.55;;;1.88;;
71503;SDS011;59323;50.874;7.028;2022-07-29T07:05:37;6.00;;;1.80;;
71503;SDS011;59323;50.874;7.028;2022-07-29T07:08:03;6.67;;;1.70;;
71503;SDS011;59323;50.874;7.028;2022-07-29T07:10:28;8.10;;;1.88;;
71503;SDS011;59323;50.874;7.028;2022-07-29T07:12:54;5.67;;;1.60;;
71503;SDS011;59323;50.874;7.028;2022-07-29T07:15:20;6.10;;;1.70;;
71503;SDS011;59323;50.874;7.028;2022-07-29T07:17:48;6.70;;;2.00;;
71503;SDS011;59323;50.874;7.028;2022-07-29T07:20:15;8.13;;;1.60;;
71503;SDS011;59323;50.874;7.028;2022-07-29T07:22:40;9.20;;;1.98;;
71503;SDS011;59323;50.874;7.028;2022-07-29T07:25:06;5.47;;;1.53;;
71503;SDS011;59323;50.874;7.028;2022-07-29T07:27:32;10.38;;;2.10;;
71503;SDS011;59323;50.874;7.028;2022-07-29T07:29:57;6.50;;;2.00;;
71503;SDS011;59323;50.874;7.028;2022-07-29T07:32:23;6.87;;;2.10;;
71503;SDS011;59323;50.874;7.028;2022-07-29T07:34:48;6.80;;;1.70;;
71503;SDS011;59323;50.874;7.028;2022-07-29T07:37:14;8.77;;;2.10;;
71503;SDS011;59323;50.874;7.028;2022-07-29T07:39:39;5.27;;;2.03;;
71503;SDS011;59323;50.874;7.028;2022-07-29T07:42:05;7.90;;;1.95;;
71503;SDS011;59323;50.874;7.028;2022-07-29T07:44:31;5.35;;;1.88;;
71503;SDS011;59323;50.874;7.028;2022-07-29T07:46:56;6.57;;;1.80;;
71503;SDS011;59323;50.874;7.028;2022-07-29T07:49:22;9.80;;;2.78;;
71503;SDS011;59323;50.874;7.028;2022-07-29T07:51:48;8.07;;;2.13;;
71503;SDS011;59323;50.874;7.028;2022-07-29T07:54:14;7.95;;;2.15;;
71503;SDS011;59323;50.874;7.028;2022-07-29T07:56:39;6.50;;;1.80;;
71503;SDS011;59323;50.874;7.028;2022-07-29T07:59:05;7.43;;;1.80;;
71503;SDS011;59323;50.874;7.028;2022-07-29T08:01:30;6.90;;;2.50;;
71503;SDS011;59323;50.874;7.028;2022-07-29T08:03:55;6.80;;;1.75;;
71503;SDS011;59323;50.874;7.028;2022-07-29T08:06:21;9.20;;;1.83;;
71503;SDS011;59323;50.874;7.028;2022-07-29T08:08:46;7.63;;;2.23;;
71503;SDS011;59323;50.874;7.028;2022-07-29T08:11:12;8.77;;;1.97;;
71503;SDS011;59323;50.874;7.028;2022-07-29T08:13:37;8.97;;;2.23;;
71503;SDS011;59323;50.874;7.028;2022-07-29T08:16:03;8.70;;;2.10;;
71503;SDS011;59323;50.874;7.028;2022-07-29T08:18:40;9.27;;;1.90;;
71503;SDS011;59323;50.874;7.028;2022-07-29T08:21:06;6.43;;;1.80;;
71503;SDS011;59323;50.874;7.028;2022-07-29T08:23:31;9.57;;;2.40;;
71503;SDS011;59323;50.874;7.028;2022-07-29T08:26:07;5.60;;;2.03;;
71503;SDS011;59323;50.874;7.028;2022-07-29T08:28:36;8.00;;;1.75;;
71503;SDS011;59323;50.874;7.028;2022-07-29T08:31:02;8.87;;;2.50;;
71503;SDS011;59323;50.874;7.028;2022-07-29T08:33:28;6.22;;;1.70;;
71503;SDS011;59323;50.874;7.028;2022-07-29T08:35:53;9.53;;;2.30;;
71503;SDS011;59323;50.874;7.028;2022-07-29T08:38:18;12.00;;;2.47;;
71503;SDS011;59323;50.874;7.028;2022-07-29T08:40:44;10.13;;;2.20;;
71503;SDS011;59323;50.874;7.028;2022-07-29T08:43:10;6.82;;;1.83;;
71503;SDS011;59323;50.874;7.028;2022-07-29T08:45:41;7.63;;;2.30;;
71503;SDS011;59323;50.874;7.028;2022-07-29T08:48:06;7.55;;;2.00;;
71503;SDS011;59323;50.874;7.028;2022-07-29T08:50:32;6.73;;;1.80;;
71503;SDS011;59323;50.874;7.028;2022-07-29T08:53:00;5.97;;;1.83;;
71503;SDS011;59323;50.874;7.028;2022-07-29T08:55:26;8.05;;;2.15;;
71503;SDS011;59323;50.874;7.028;2022-07-29T08:57:52;7.38;;;2.08;;
71503;SDS011;59323;50.874;7.028;2022-07-29T09:00:19;6.57;;;1.85;;
71503;SDS011;59323;50.874;7.028;2022-07-29T09:02:47;10.50;;;2.37;;
71503;SDS011;59323;50.874;7.028;2022-07-29T09:05:16;9.07;;;2.53;;
71503;SDS011;59323;50.874;7.028;2022-07-29T09:07:43;7.45;;;2.10;;
71503;SDS011;59323;50.874;7.028;2022-07-29T09:10:09;10.02;;;2.40;;
71503;SDS011;59323;50.874;7.028;2022-07-29T09:12:35;10.70;;;2.30;;
71503;SDS011;59323;50.874;7.028;2022-07-29T09:15:00;6.22;;;2.15;;
71503;SDS011;59323;50.874;7.028;2022-07-29T09:17:45;12.20;;;2.40;;
71503;SDS011;59323;50.874;7.028;2022-07-29T09:20:19;11.52;;;2.35;;
71503;SDS011;59323;50.874;7.028;2022-07-29T09:22:47;12.73;;;3.17;;
71503;SDS011;59323;50.874;7.028;2022-07-29T09:25:14;7.73;;;2.27;;
71503;SDS011;59323;50.874;7.028;2022-07-29T09:28:04;8.77;;;3.03;;
71503;SDS011;59323;50.874;7.028;2022-07-29T09:30:31;7.32;;;2.33;;
71503;SDS011;59323;50.874;7.028;2022-07-29T09:32:57;7.27;;;2.13;;
71503;SDS011;59323;50.874;7.028;2022-07-29T09:35:26;8.30;;;2.60;;
71503;SDS011;59323;50.874;7.028;2022-07-29T09:37:53;8.05;;;2.00;;
71503;SDS011;59323;50.874;7.028;2022-07-29T09:40:20;7.47;;;2.30;;
71503;SDS011;59323;50.874;7.028;2022-07-29T09:42:47;8.57;;;3.00;;
71503;SDS011;59323;50.874;7.028;2022-07-29T09:45:13;9.20;;;2.72;;
71503;SDS011;59323;50.874;7.028;2022-07-29T09:47:58;8.73;;;2.63;;
71503;SDS011;59323;50.874;7.028;2022-07-29T09:50:41;10.68;;;3.00;;
71503;SDS011;59323;50.874;7.028;2022-07-29T09:53:08;11.73;;;3.13;;
71503;SDS011;59323;50.874;7.028;2022-07-29T09:55:47;6.93;;;2.60;;
71503;SDS011;59323;50.874;7.028;2022-07-29T09:58:15;14.15;;;2.75;;
71503;SDS011;59323;50.874;7.028;2022-07-29T10:00:45;10.15;;;2.72;;
71503;SDS011;59323;50.874;7.028;2022-07-29T10:03:11;10.13;;;2.97;;
71503;SDS011;59323;50.874;7.028;2022-07-29T10:05:40;9.10;;;2.60;;
71503;SDS011;59323;50.874;7.028;2022-07-29T10:08:07;8.70;;;2.92;;
71503;SDS011;59323;50.874;7.028;2022-07-29T10:10:34;11.52;;;2.63;;
71503;SDS011;59323;50.874;7.028;2022-07-29T10:13:06;7.93;;;2.85;;
71503;SDS011;59323;50.874;7.028;2022-07-29T10:15:35;7.15;;;2.63;;
71503;SDS011;59323;50.874;7.028;2022-07-29T10:18:03;7.00;;;2.67;;
71503;SDS011;59323;50.874;7.028;2022-07-29T10:20:30;10.52;;;3.28;;
71503;SDS011;59323;50.874;7.028;2022-07-29T10:22:55;9.93;;;2.78;;
71503;SDS011;59323;50.874;7.028;2022-07-29T10:25:21;7.53;;;2.43;;
71503;SDS011;59323;50.874;7.028;2022-07-29T10:27:48;6.85;;;2.30;;
71503;SDS011;59323;50.874;7.028;2022-07-29T10:30:16;7.82;;;2.38;;
71503;SDS011;59323;50.874;7.028;2022-07-29T10:41:29;8.50;;;2.67;;
71503;SDS011;59323;50.874;7.028;2022-07-29T10:44:22;10.25;;;2.60;;
71503;SDS011;59323;50.874;7.028;2022-07-29T10:46:50;7.85;;;2.30;;
71503;SDS011;59323;50.874;7.028;2022-07-29T10:49:17;8.63;;;2.37;;
71503;SDS011;59323;50.874;7.028;2022-07-29T10:57:15;7.05;;;2.50;;
71503;SDS011;59323;50.874;7.028;2022-07-29T10:59:47;9.88;;;2.45;;
71503;SDS011;59323;50.874;7.028;2022-07-29T11:04:59;7.10;;;2.22;;
71503;SDS011;59323;50.874;7.028;2022-07-29T11:07:34;5.88;;;2.63;;
71503;SDS011;59323;50.874;7.028;2022-07-29T11:20:33;5.25;;;1.88;;
71503;SDS011;59323;50.874;7.028;2022-07-29T11:28:36;7.28;;;2.22;;
71503;SDS011;59323;50.874;7.028;2022-07-29T11:39:45;6.53;;;2.40;;
71503;SDS011;59323;50.874;7.028;2022-07-29T11:45:09;5.00;;;2.35;;
71503;SDS011;59323;50.874;7.028;2022-07-29T11:47:40;5.47;;;2.30;;
71503;SDS011;59323;50.874;7.028;2022-07-29T11:50:12;6.95;;;2.78;;
71503;SDS011;59323;50.874;7.028;2022-07-29T11:53:01;6.40;;;2.30;;
71503;SDS011;59323;50.874;7.028;2022-07-29T11:55:34;6.57;;;2.00;;
71503;SDS011;59323;50.874;7.028;2022-07-29T11:58:03;7.72;;;2.72;;
71503;SDS011;59323;50.874;7.028;2022-07-29T12:02:54;5.90;;;2.37;;
71503;SDS011;59323;50.874;7.028;2022-07-29T12:05:20;5.88;;;2.65;;
71503;SDS011;59323;50.874;7.028;2022-07-29T12:07:46;8.57;;;2.67;;
71503;SDS011;59323;50.874;7.028;2022-07-29T12:10:12;6.95;;;2.30;;
71503;SDS011;59323;50.874;7.028;2022-07-29T12:12:40;6.17;;;2.40;;
71503;SDS011;59323;50.874;7.028;2022-07-29T12:17:39;6.13;;;2.15;;
71503;SDS011;59323;50.874;7.028;2022-07-29T12:20:06;8.37;;;2.60;;
71503;SDS011;59323;50.874;7.028;2022-07-29T12:22:32;6.75;;;2.25;;
71503;SDS011;59323;50.874;7.028;2022-07-29T12:25:03;7.88;;;2.70;;
71503;SDS011;59323;50.874;7.028;2022-07-29T12:27:30;7.83;;;2.40;;
71503;SDS011;59323;50.874;7.028;2022-07-29T12:29:59;7.60;;;2.70;;
71503;SDS011;59323;50.874;7.028;2022-07-29T12:32:34;9.85;;;2.40;;
71503;SDS011;59323;50.874;7.028;2022-07-29T12:35:04;8.27;;;2.75;;
71503;SDS011;59323;50.874;7.028;2022-07-29T12:37:33;11.43;;;2.78;;
71503;SDS011;59323;50.874;7.028;2022-07-29T12:40:00;6.43;;;2.50;;
71503;SDS011;59323;50.874;7.028;2022-07-29T12:42:26;7.18;;;2.10;;
71503;SDS011;59323;50.874;7.028;2022-07-29T12:44:52;8.82;;;2.70;;
71503;SDS011;59323;50.874;7.028;2022-07-29T12:47:18;6.47;;;2.20;;
71503;SDS011;59323;50.874;7.028;2022-07-29T12:49:46;5.82;;;2.60;;
71503;SDS011;59323;50.874;7.028;2022-07-29T12:54:49;6.60;;;2.95;;
71503;SDS011;59323;50.874;7.028;2022-07-29T12:57:15;7.97;;;2.70;;
71503;SDS011;59323;50.874;7.028;2022-07-29T12:59:40;7.60;;;2.90;;
71503;SDS011;59323;50.874;7.028;2022-07-29T13:02:06;8.23;;;2.67;;
71503;SDS011;59323;50.874;7.028;2022-07-29T13:04:32;6.27;;;2.20;;
71503;SDS011;59323;50.874;7.028;2022-07-29T13:07:04;9.48;;;2.42;;
71503;SDS011;59323;50.874;7.028;2022-07-29T13:09:44;7.82;;;2.38;;
71503;SDS011;59323;50.874;7.028;2022-07-29T13:12:13;8.32;;;2.25;;
71503;SDS011;59323;50.874;7.028;2022-07-29T13:14:40;5.25;;;2.33;;
71503;SDS011;59323;50.874;7.028;2022-07-29T13:17:07;9.77;;;2.33;;
71503;SDS011;59323;50.874;7.028;2022-07-29T13:19:36;6.30;;;2.20;;
71503;SDS011;59323;50.874;7.028;2022-07-29T13:22:06;4.53;;;2.50;;
71503;SDS011;59323;50.874;7.028;2022-07-29T13:24:33;11.95;;;2.50;;
71503;SDS011;59323;50.874;7.028;2022-07-29T13:26:59;8.50;;;2.40;;
71503;SDS011;59323;50.874;7.028;2022-07-29T13:29:24;6.33;;;2.40;;
71503;SDS011;59323;50.874;7.028;2022-07-29T13:31:51;7.80;;;2.53;;
71503;SDS011;59323;50.874;7.028;2022-07-29T13:34:17;5.30;;;1.80;;
71503;SDS011;59323;50.874;7.028;2022-07-29T13:36:44;5.25;;;2.50;;
71503;SDS011;59323;50.874;7.028;2022-07-29T13:39:10;5.68;;;2.45;;
71503;SDS011;59323;50.874;7.028;2022-07-29T13:41:36;7.53;;;2.00;;
71503;SDS011;59323;50.874;7.028;2022-07-29T13:44:01;5.10;;;2.30;;
71503;SDS011;59323;50.874;7.028;2022-07-29T13:46:27;7.73;;;2.57;;
71503;SDS011;59323;50.874;7.028;2022-07-29T13:48:52;7.00;;;2.07;;
71503;SDS011;59323;50.874;7.028;2022-07-29T13:51:18;9.90;;;2.50;;
71503;SDS011;59323;50.874;7.028;2022-07-29T13:53:43;5.93;;;1.80;;
71503;SDS011;59323;50.874;7.028;2022-07-29T13:56:08;8.37;;;2.53;;
71503;SDS011;59323;50.874;7.028;2022-07-29T13:58:34;7.17;;;2.60;;
71503;SDS011;59323;50.874;7.028;2022-07-29T14:00:59;6.93;;;2.10;;
71503;SDS011;59323;50.874;7.028;2022-07-29T14:03:25;9.60;;;3.27;;
71503;SDS011;59323;50.874;7.028;2022-07-29T14:05:50;6.37;;;2.93;;
71503;SDS011;59323;50.874;7.028;2022-07-29T14:08:16;6.18;;;2.58;;
71503;SDS011;59323;50.874;7.028;2022-07-29T14:10:42;12.20;;;2.87;;
71503;SDS011;59323;50.874;7.028;2022-07-29T14:13:07;7.28;;;2.63;;
71503;SDS011;59323;50.874;7.028;2022-07-29T14:15:33;7.33;;;2.83;;
71503;SDS011;59323;50.874;7.028;2022-07-29T14:17:58;6.77;;;2.63;;
71503;SDS011;59323;50.874;7.028;2022-07-29T14:20:24;11.77;;;3.47;;
71503;SDS011;59323;50.874;7.028;2022-07-29T14:22:50;8.17;;;3.50;;
71503;SDS011;59323;50.874;7.028;2022-07-29T14:25:15;9.55;;;3.13;;
71503;SDS011;59323;50.874;7.028;2022-07-29T14:27:41;9.83;;;3.00;;
71503;SDS011;59323;50.874;7.028;2022-07-29T14:30:08;11.00;;;3.53;;
71503;SDS011;59323;50.874;7.028;2022-07-29T14:32:34;12.10;;;3.78;;
71503;SDS011;59323;50.874;7.028;2022-07-29T14:35:00;12.23;;;3.33;;
71503;SDS011;59323;50.874;7.028;2022-07-29T14:37:25;8.73;;;3.38;;
71503;SDS011;59323;50.874;7.028;2022-07-29T14:39:50;8.80;;;3.30;;
71503;SDS011;59323;50.874;7.028;2022-07-29T14:42:16;7.73;;;2.40;;
71503;SDS011;59323;50.874;7.028;2022-07-29T14:44:59;12.30;;;2.90;;
71503;SDS011;59323;50.874;7.028;2022-07-29T14:47:25;8.23;;;3.38;;
71503;SDS011;59323;50.874;7.028;2022-07-29T14:50:04;8.10;;;3.10;;
71503;SDS011;59323;50.874;7.028;2022-07-29T14:52:30;11.40;;;3.40;;
71503;SDS011;59323;50.874;7.028;2022-07-29T14:54:56;7.77;;;3.17;;
71503;SDS011;59323;50.874;7.028;2022-07-29T14:57:22;10.20;;;3.85;;
71503;SDS011;59323;50.874;7.028;2022-07-29T14:59:47;10.00;;;2.90;;
71503;SDS011;59323;50.874;7.028;2022-07-29T15:02:13;13.33;;;3.50;;
71503;SDS011;59323;50.874;7.028;2022-07-29T15:04:44;9.27;;;3.38;;
71503;SDS011;59323;50.874;7.028;2022-07-29T15:07:11;8.98;;;3.75;;
71503;SDS011;59323;50.874;7.028;2022-07-29T15:09:40;8.70;;;3.80;;
71503;SDS011;59323;50.874;7.028;2022-07-29T15:12:06;11.15;;;3.30;;
71503;SDS011;59323;50.874;7.028;2022-07-29T15:14:32;7.85;;;3.08;;
71503;SDS011;59323;50.874;7.028;2022-07-29T15:16:57;8.30;;;3.10;;
71503;SDS011;59323;50.874;7.028;2022-07-29T15:19:23;8.55;;;3.33;;
71503;SDS011;59323;50.874;7.028;2022-07-29T15:21:48;7.33;;;2.93;;
71503;SDS011;59323;50.874;7.028;2022-07-29T15:24:18;7.55;;;3.40;;
71503;SDS011;59323;50.874;7.028;2022-07-29T15:26:44;8.07;;;3.10;;
71503;SDS011;59323;50.874;7.028;2022-07-29T15:29:10;7.83;;;3.20;;
71503;SDS011;59323;50.874;7.028;2022-07-29T15:31:35;6.82;;;2.72;;
71503;SDS011;59323;50.874;7.028;2022-07-29T15:34:01;6.87;;;2.53;;
71503;SDS011;59323;50.874;7.028;2022-07-29T15:36:36;6.75;;;2.58;;
71503;SDS011;59323;50.874;7.028;2022-07-29T15:39:01;7.73;;;3.07;;
71503;SDS011;59323;50.874;7.028;2022-07-29T15:41:27;6.50;;;2.42;;
71503;SDS011;59323;50.874;7.028;2022-07-29T15:43:52;7.43;;;2.80;;
71503;SDS011;59323;50.874;7.028;2022-07-29T15:46:18;8.83;;;2.40;;
71503;SDS011;59323;50.874;7.028;2022-07-29T15:49:03;6.18;;;2.35;;
71503;SDS011;59323;50.874;7.028;2022-07-29T15:51:29;7.75;;;3.05;;